PN64 weather

Hilling International Airport
Huntingdon, Pennsylvania, United States

Public forecast

Using degrees Fahrenheit for public forecast. Weather courtesy of forecast.io.

Closest aviation weather report (METAR) to Hilling International Airport

Closest report is University Park Airport, 21.2 nm (39.3 km) N. Retrieved 2020/07/06 19:53 UTC (36 minutes ago):

KUNV 061953Z 24005KT 10SM SCT060 32/17 A3002

Closest aviation forecast (TAF) to Hilling International Airport

Closest forecast is University Park Airport, 21.2 nm (39.3 km) N. Retrieved 2020/07/06 18:51 UTC (2 hours ago):

TAF KUNV 061740Z 0618/0718 23002KT P6SM SCT050 FM061930 23004KT P6SM VCTS SCT050CB FM070000 14002KT P6SM SCT050 FM070900 00000KT 5SM BR SCT010